createdAt,value
2018-08-31T00:01:33.485Z,17.30
2018-08-31T00:05:55.930Z,17.30
2018-08-31T00:09:14.924Z,17.30
2018-08-31T00:13:37.090Z,17.30
2018-08-31T00:15:41.033Z,17.40
2018-08-31T00:17:46.181Z,17.40
2018-08-31T00:19:50.045Z,17.30
2018-08-31T00:21:55.474Z,17.30
2018-08-31T00:24:11.052Z,17.30
2018-08-31T00:26:26.288Z,17.30
2018-08-31T00:29:06.145Z,17.30
2018-08-31T00:31:21.758Z,17.30
2018-08-31T00:33:37.405Z,17.40
2018-08-31T00:38:05.819Z,17.30
2018-08-31T00:43:25.156Z,17.20
2018-08-31T00:45:34.550Z,17.10
2018-08-31T00:47:42.367Z,17.20
2018-08-31T00:49:46.883Z,17.10
2018-08-31T00:51:51.706Z,17.10
2018-08-31T00:53:55.646Z,17.20
2018-08-31T00:56:00.607Z,17.30
2018-08-31T00:58:06.950Z,17.30
2018-08-31T01:00:13.651Z,17.30
2018-08-31T01:02:18.948Z,17.30
2018-08-31T01:04:24.245Z,17.30
2018-08-31T01:06:28.699Z,17.20
2018-08-31T01:08:32.660Z,17.30
2018-08-31T01:10:37.510Z,17.30
2018-08-31T01:12:41.955Z,17.30
2018-08-31T01:14:46.561Z,17.30
2018-08-31T01:16:51.324Z,17.30
2018-08-31T01:18:55.778Z,17.40
2018-08-31T01:21:00.250Z,17.40
2018-08-31T01:23:09.769Z,17.50
2018-08-31T01:25:13.935Z,17.50
2018-08-31T01:27:18.354Z,17.50
2018-08-31T01:29:23.118Z,17.50
2018-08-31T01:31:27.774Z,17.40
2018-08-31T01:33:31.750Z,17.30
2018-08-31T01:35:37.429Z,17.20
2018-08-31T01:37:42.734Z,17.10
2018-08-31T01:39:47.246Z,17.10
2018-08-31T01:41:52.462Z,17.00
2018-08-31T01:43:57.191Z,16.90
2018-08-31T01:46:02.314Z,17.00
2018-08-31T01:48:07.799Z,17.00
2018-08-31T01:50:12.984Z,16.90
2018-08-31T01:52:18.151Z,16.80
2018-08-31T01:54:23.065Z,16.80
2018-08-31T01:56:27.615Z,16.80
2018-08-31T01:58:33.410Z,16.80
2018-08-31T02:00:38.258Z,16.60
2018-08-31T02:02:42.191Z,16.60
2018-08-31T02:04:47.370Z,16.60
2018-08-31T02:06:52.430Z,16.60
2018-08-31T02:09:02.017Z,16.60
2018-08-31T02:11:07.071Z,16.60
2018-08-31T02:13:12.023Z,16.70
2018-08-31T02:15:17.129Z,16.70
2018-08-31T02:17:20.992Z,16.70
2018-08-31T02:19:26.004Z,16.60
2018-08-31T02:21:30.564Z,16.60
2018-08-31T02:23:35.125Z,16.50
2018-08-31T02:25:41.044Z,16.50
2018-08-31T02:27:46.123Z,16.50
2018-08-31T02:29:51.841Z,16.40
2018-08-31T02:31:56.922Z,16.40
2018-08-31T02:34:02.098Z,16.40
2018-08-31T02:36:07.709Z,16.40
2018-08-31T02:38:12.041Z,16.50
2018-08-31T02:40:16.471Z,16.50
2018-08-31T02:42:20.925Z,16.40
2018-08-31T02:44:25.731Z,16.40
2018-08-31T02:46:30.261Z,16.50
2018-08-31T02:48:35.296Z,16.70
2018-08-31T02:50:40.074Z,16.60
2018-08-31T02:52:44.897Z,16.60
2018-08-31T02:54:53.572Z,16.60
2018-08-31T02:56:57.533Z,16.60
2018-08-31T02:59:05.543Z,16.50
2018-08-31T03:01:10.664Z,16.50
2018-08-31T03:03:15.949Z,16.40
2018-08-31T03:05:20.236Z,16.40
2018-08-31T03:07:24.917Z,16.40
2018-08-31T03:09:30.528Z,16.60
2018-08-31T03:11:36.824Z,16.60
2018-08-31T03:13:43.083Z,16.60
2018-08-31T03:15:47.671Z,16.60
2018-08-31T03:17:51.584Z,16.50
2018-08-31T03:19:57.080Z,16.50
2018-08-31T03:22:00.978Z,16.40
2018-08-31T03:24:05.506Z,16.40
2018-08-31T03:26:09.390Z,16.40
2018-08-31T03:28:15.633Z,16.30
2018-08-31T03:30:20.921Z,16.20
2018-08-31T03:32:25.183Z,16.20
2018-08-31T03:34:30.689Z,16.20
2018-08-31T03:36:35.542Z,16.10
2018-08-31T03:38:40.651Z,16.20
2018-08-31T03:40:45.432Z,16.20
2018-08-31T03:42:50.586Z,16.20
2018-08-31T03:44:59.890Z,16.20
2018-08-31T03:47:05.037Z,16.30
2018-08-31T03:49:08.870Z,16.20
2018-08-31T03:51:14.266Z,16.30
2018-08-31T03:53:20.227Z,16.30
2018-08-31T03:55:26.254Z,16.20
2018-08-31T03:57:31.325Z,16.20
2018-08-31T03:59:39.971Z,16.20
2018-08-31T04:01:44.525Z,16.10
2018-08-31T04:03:49.002Z,16.10
2018-08-31T04:05:53.780Z,16.20
2018-08-31T04:07:59.266Z,16.10
2018-08-31T04:10:03.198Z,16.20
2018-08-31T04:12:07.687Z,16.20
2018-08-31T04:14:12.437Z,16.20
2018-08-31T04:16:18.380Z,16.20
2018-08-31T04:18:22.672Z,16.10
2018-08-31T04:20:27.201Z,16.10
2018-08-31T04:22:31.722Z,16.10
2018-08-31T04:24:38.346Z,16.10
2018-08-31T04:26:43.567Z,16.10
2018-08-31T04:28:48.010Z,16.10
2018-08-31T04:30:52.506Z,16.10
2018-08-31T04:32:58.612Z,16.10
2018-08-31T04:35:03.717Z,16.10
2018-08-31T04:37:08.854Z,16.10
2018-08-31T04:39:14.140Z,16.10
2018-08-31T04:41:18.760Z,16.10
2018-08-31T04:43:23.167Z,16.10
2018-08-31T04:45:27.003Z,16.10
2018-08-31T04:47:31.581Z,16.00
2018-08-31T04:49:37.931Z,16.00
2018-08-31T04:51:44.620Z,16.00
2018-08-31T04:53:49.224Z,16.00
2018-08-31T04:55:54.396Z,16.10
2018-08-31T04:57:58.261Z,16.00
2018-08-31T05:00:05.803Z,16.00
2018-08-31T05:02:11.105Z,16.00
2018-08-31T05:04:15.599Z,15.90
2018-08-31T05:06:20.091Z,16.00
2018-08-31T05:08:26.840Z,16.00
2018-08-31T05:10:31.992Z,16.00
2018-08-31T05:12:36.504Z,16.10
2018-08-31T05:14:41.285Z,16.10
2018-08-31T05:16:45.245Z,16.20
2018-08-31T05:18:50.426Z,16.20
2018-08-31T05:20:55.155Z,16.30
2018-08-31T05:22:59.813Z,16.40
2018-08-31T05:25:04.376Z,16.30
2018-08-31T05:27:10.786Z,16.30
2018-08-31T05:29:16.082Z,16.30
2018-08-31T05:31:20.751Z,16.30
2018-08-31T05:33:25.229Z,16.40
2018-08-31T05:35:29.702Z,16.40
2018-08-31T05:37:35.576Z,16.50
2018-08-31T05:39:45.604Z,16.40
2018-08-31T05:41:50.276Z,16.40
2018-08-31T05:43:55.961Z,16.40
2018-08-31T05:46:01.011Z,16.50
2018-08-31T05:48:05.469Z,16.60
2018-08-31T05:50:09.384Z,16.70
2018-08-31T05:52:14.206Z,16.60
2018-08-31T05:54:18.706Z,16.70
2018-08-31T05:56:24.052Z,16.80
2018-08-31T05:58:29.061Z,16.70
2018-08-31T06:00:34.443Z,16.90
2018-08-31T06:02:38.937Z,17.00
2018-08-31T06:04:43.802Z,17.00
2018-08-31T06:06:48.923Z,17.10
2018-08-31T06:08:53.413Z,17.40
2018-08-31T06:10:59.088Z,17.60
2018-08-31T06:13:03.557Z,17.60
2018-08-31T06:15:08.019Z,17.60
2018-08-31T06:17:14.065Z,17.60
2018-08-31T06:19:18.490Z,17.60
2018-08-31T06:21:26.405Z,17.60
2018-08-31T06:23:37.632Z,17.60
2018-08-31T06:25:42.405Z,17.70
2018-08-31T06:27:48.566Z,17.80
2018-08-31T06:29:53.379Z,17.70
2018-08-31T06:31:58.695Z,17.80
2018-08-31T06:34:03.106Z,17.70
2018-08-31T06:36:07.651Z,17.70
2018-08-31T06:38:11.882Z,17.70
2018-08-31T06:40:19.250Z,17.50
2018-08-31T06:42:23.371Z,17.50
2018-08-31T06:44:27.855Z,17.50
2018-08-31T06:46:31.794Z,17.50
2018-08-31T06:48:35.634Z,17.50
2018-08-31T06:50:40.051Z,17.50
2018-08-31T06:52:46.431Z,17.60
2018-08-31T06:54:51.048Z,17.70
2018-08-31T06:56:57.379Z,17.80
2018-08-31T06:59:03.275Z,17.90
2018-08-31T07:01:08.648Z,18.00
2018-08-31T07:03:13.540Z,17.90
2018-08-31T07:05:19.537Z,17.90
2018-08-31T07:07:23.961Z,17.90
2018-08-31T07:09:27.902Z,17.90
2018-08-31T07:11:32.822Z,17.90
2018-08-31T07:13:37.227Z,17.90
2018-08-31T07:15:41.767Z,18.10
2018-08-31T07:17:45.974Z,18.00
2018-08-31T07:19:52.498Z,18.00
2018-08-31T07:21:57.706Z,18.00
2018-08-31T07:24:04.172Z,18.00
2018-08-31T07:26:08.934Z,18.10
2018-08-31T07:28:14.483Z,18.40
2018-08-31T07:30:21.787Z,18.60
2018-08-31T07:32:25.695Z,18.60
2018-08-31T07:34:32.484Z,18.70
2018-08-31T07:36:38.118Z,18.70
2018-08-31T07:38:42.754Z,18.70
2018-08-31T07:40:46.905Z,18.80
2018-08-31T07:42:51.163Z,19.00
2018-08-31T07:44:56.648Z,19.10
2018-08-31T07:47:01.817Z,19.30
2018-08-31T07:49:10.090Z,19.50
2018-08-31T07:51:14.775Z,19.80
2018-08-31T07:53:19.864Z,20.00
2018-08-31T07:55:26.370Z,20.10
2018-08-31T07:57:35.802Z,20.20
2018-08-31T07:59:43.003Z,20.20
2018-08-31T08:01:53.729Z,20.20
2018-08-31T08:03:59.024Z,20.20
2018-08-31T08:06:07.780Z,20.20
2018-08-31T08:08:15.534Z,20.30
2018-08-31T08:10:20.185Z,20.30
2018-08-31T08:12:25.694Z,20.10
2018-08-31T08:14:32.634Z,20.00
2018-08-31T08:16:37.709Z,19.90
2018-08-31T08:18:42.485Z,19.90
2018-08-31T08:20:47.913Z,20.00
2018-08-31T08:22:53.085Z,19.80
2018-08-31T08:25:00.850Z,19.80
2018-08-31T08:27:06.449Z,19.90
2018-08-31T08:29:13.111Z,19.90
2018-08-31T08:31:18.587Z,19.70
2018-08-31T08:33:24.167Z,19.40
2018-08-31T08:35:28.132Z,19.30
2018-08-31T08:37:33.404Z,19.50
2018-08-31T08:39:38.943Z,19.50
2018-08-31T08:41:42.960Z,19.40
2018-08-31T08:43:50.949Z,19.60
2018-08-31T08:45:55.780Z,19.80
2018-08-31T08:48:01.350Z,19.80
2018-08-31T08:50:06.583Z,20.00
2018-08-31T08:52:11.458Z,20.10
2018-08-31T08:54:15.933Z,20.20
2018-08-31T08:56:22.648Z,20.00
2018-08-31T08:58:28.345Z,20.10
2018-08-31T09:00:34.412Z,20.30
2018-08-31T09:02:39.341Z,20.40
2018-08-31T09:04:44.271Z,20.50
2018-08-31T09:06:49.589Z,20.60
2018-08-31T09:08:54.208Z,20.50
2018-08-31T09:11:01.397Z,20.60
2018-08-31T09:13:06.325Z,20.40
2018-08-31T09:15:13.016Z,20.20
2018-08-31T09:17:17.161Z,20.20
2018-08-31T09:19:22.223Z,20.20
2018-08-31T09:21:28.621Z,20.20
2018-08-31T09:23:36.780Z,20.30
2018-08-31T09:25:43.881Z,20.30
2018-08-31T09:27:49.158Z,20.40
2018-08-31T09:29:54.655Z,20.50
2018-08-31T09:31:59.590Z,20.50
2018-08-31T09:34:05.539Z,20.50
2018-08-31T09:36:14.183Z,20.50
2018-08-31T09:38:18.754Z,20.40
2018-08-31T09:40:23.240Z,20.40
2018-08-31T09:42:27.960Z,20.60
2018-08-31T09:44:32.937Z,20.60
2018-08-31T09:46:38.043Z,20.60
2018-08-31T09:48:45.265Z,20.70
2018-08-31T09:50:50.854Z,20.80
2018-08-31T09:52:55.717Z,20.90
2018-08-31T09:55:09.939Z,21.10
2018-08-31T09:57:15.449Z,21.20
2018-08-31T09:59:20.452Z,21.40
2018-08-31T10:01:31.150Z,21.40
2018-08-31T10:03:35.778Z,21.40
2018-08-31T10:05:41.256Z,21.40
2018-08-31T10:07:45.841Z,21.70
2018-08-31T10:09:50.708Z,22.00
2018-08-31T10:11:56.532Z,22.10
2018-08-31T10:14:01.484Z,22.30
2018-08-31T10:16:06.360Z,22.60
2018-08-31T10:18:10.325Z,22.90
2018-08-31T10:20:15.658Z,23.00
2018-08-31T10:22:22.058Z,22.80
2018-08-31T10:24:28.226Z,22.60
2018-08-31T10:26:53.025Z,22.50
2018-08-31T10:28:58.867Z,22.60
2018-08-31T10:31:05.745Z,22.60
2018-08-31T10:33:10.334Z,22.80
2018-08-31T10:35:18.547Z,23.10
2018-08-31T10:37:24.726Z,23.10
2018-08-31T10:39:30.335Z,23.00
2018-08-31T10:41:36.382Z,23.00
2018-08-31T10:43:40.922Z,23.00
2018-08-31T10:45:47.791Z,23.20
2018-08-31T10:47:52.226Z,23.10
2018-08-31T10:49:57.888Z,22.90
2018-08-31T10:52:02.162Z,23.00
2018-08-31T10:54:09.173Z,22.90
2018-08-31T10:56:14.412Z,23.00
2018-08-31T10:58:18.885Z,23.10
2018-08-31T11:00:25.675Z,23.10
2018-08-31T11:02:30.533Z,23.10
2018-08-31T11:04:37.280Z,23.00
2018-08-31T11:06:42.610Z,23.30
2018-08-31T11:08:48.146Z,23.70
2018-08-31T11:10:55.724Z,23.80
2018-08-31T11:13:02.312Z,24.00
2018-08-31T11:15:13.758Z,24.20
2018-08-31T11:17:18.333Z,24.40
2018-08-31T11:19:24.978Z,24.50
2018-08-31T11:21:31.699Z,24.60
2018-08-31T11:23:44.353Z,24.50
2018-08-31T11:25:51.361Z,24.50
2018-08-31T11:27:56.480Z,24.70
2018-08-31T11:30:01.353Z,24.60
2018-08-31T11:32:06.965Z,24.60
2018-08-31T11:34:17.730Z,24.60
2018-08-31T11:36:23.778Z,24.50
2018-08-31T11:38:29.477Z,24.40
2018-08-31T11:40:38.042Z,24.50
2018-08-31T11:42:46.024Z,24.80
2018-08-31T11:44:53.155Z,25.00
2018-08-31T11:47:01.814Z,25.10
2018-08-31T11:49:08.842Z,25.00
2018-08-31T11:51:23.298Z,24.90
2018-08-31T11:53:28.147Z,25.10
2018-08-31T11:55:33.527Z,25.50
2018-08-31T11:57:38.273Z,25.70
2018-08-31T11:59:44.233Z,25.80
2018-08-31T12:01:49.804Z,25.80
2018-08-31T12:04:02.418Z,25.60
2018-08-31T12:06:10.388Z,25.70
2018-08-31T12:08:17.645Z,26.00
2018-08-31T12:10:23.398Z,26.20
2018-08-31T12:12:30.272Z,26.30
2018-08-31T12:16:52.034Z,26.60
2018-08-31T12:18:58.197Z,26.60
2018-08-31T12:21:03.809Z,26.60
2018-08-31T12:23:08.771Z,26.60
2018-08-31T12:25:14.369Z,26.50
2018-08-31T12:27:21.475Z,26.60
2018-08-31T12:29:25.475Z,26.90
2018-08-31T12:31:31.550Z,26.60
2018-08-31T12:33:37.062Z,26.30
2018-08-31T12:35:42.566Z,26.30
2018-08-31T12:37:47.211Z,26.20
2018-08-31T12:39:53.103Z,26.20
2018-08-31T12:41:58.747Z,26.20
2018-08-31T12:44:05.450Z,26.40
2018-08-31T12:46:10.342Z,26.40
2018-08-31T12:48:15.642Z,26.30
2018-08-31T12:50:21.158Z,25.90
2018-08-31T12:52:26.212Z,25.70
2018-08-31T12:54:32.496Z,25.60
2018-08-31T12:56:38.959Z,25.30
2018-08-31T12:58:50.899Z,25.30
2018-08-31T13:00:55.492Z,25.70
2018-08-31T13:03:02.869Z,26.20
2018-08-31T13:05:07.320Z,26.40
2018-08-31T13:07:12.630Z,26.70
2018-08-31T13:09:19.389Z,27.20
2018-08-31T13:11:25.266Z,27.30
2018-08-31T13:13:29.686Z,27.50
2018-08-31T13:15:35.942Z,27.70
2018-08-31T13:17:42.579Z,27.80
2018-08-31T13:19:47.420Z,27.40
2018-08-31T13:21:51.866Z,27.40
2018-08-31T13:23:56.441Z,27.50
2018-08-31T13:26:02.075Z,27.00
2018-08-31T13:28:08.554Z,26.90
2018-08-31T13:30:18.377Z,26.90
2018-08-31T13:32:22.324Z,26.60
2018-08-31T13:34:27.829Z,26.70
2018-08-31T13:36:32.786Z,26.80
2018-08-31T13:38:38.356Z,26.80
2018-08-31T13:40:45.179Z,27.00
2018-08-31T13:42:52.055Z,27.30
2018-08-31T13:44:58.845Z,27.10
2018-08-31T13:47:06.894Z,26.90
2018-08-31T13:49:14.501Z,26.50
2018-08-31T13:51:22.720Z,26.30
2018-08-31T13:53:28.364Z,25.50
2018-08-31T13:55:35.167Z,25.40
2018-08-31T13:57:41.766Z,25.20
2018-08-31T13:59:47.464Z,24.80
2018-08-31T14:01:51.593Z,24.60
2018-08-31T14:03:55.698Z,24.50
2018-08-31T14:06:05.948Z,24.40
2018-08-31T14:08:10.847Z,24.50
2018-08-31T14:10:16.613Z,24.60
2018-08-31T14:12:23.590Z,24.70
2018-08-31T14:14:28.822Z,24.80
2018-08-31T14:16:35.918Z,25.30
2018-08-31T14:18:40.500Z,26.10
2018-08-31T19:30:22.624Z,19.10
2018-08-31T19:32:28.499Z,19.20
2018-08-31T19:34:36.128Z,19.10
2018-08-31T19:36:41.719Z,19.10
2018-08-31T19:38:48.785Z,19.00
2018-08-31T19:41:00.115Z,19.00
2018-08-31T19:43:11.036Z,19.00
2018-08-31T19:45:31.119Z,19.00
2018-08-31T19:47:38.585Z,19.00
2018-08-31T19:49:51.593Z,19.00
2018-08-31T19:52:05.151Z,19.10
2018-08-31T19:54:19.821Z,19.00
2018-08-31T19:56:28.357Z,18.90
2018-08-31T19:58:36.609Z,18.90
2018-08-31T20:06:09.009Z,18.80
2018-08-31T20:08:32.541Z,18.80
2018-08-31T20:10:39.953Z,18.90
2018-08-31T20:12:50.556Z,18.80
2018-08-31T20:17:20.741Z,18.70
2018-08-31T20:19:30.889Z,18.60
2018-08-31T20:21:41.676Z,18.70
2018-08-31T20:23:47.989Z,18.60
2018-08-31T20:25:54.284Z,18.40
2018-08-31T20:28:07.965Z,18.40
2018-08-31T20:30:27.838Z,18.40
2018-08-31T20:32:39.038Z,18.50
2018-08-31T20:34:45.257Z,18.40
2018-08-31T20:36:51.348Z,18.40
2018-08-31T20:38:58.221Z,18.50
2018-08-31T20:41:19.165Z,18.50
2018-08-31T20:43:30.830Z,18.50
2018-08-31T20:45:48.928Z,18.40
2018-08-31T20:47:59.057Z,18.40
2018-08-31T20:50:15.108Z,18.40
2018-08-31T20:52:21.566Z,18.50
2018-08-31T20:54:30.634Z,18.50
2018-08-31T20:56:37.794Z,18.50
2018-08-31T20:58:42.795Z,18.50
2018-08-31T21:00:49.050Z,18.40
2018-08-31T21:02:55.872Z,18.40
2018-08-31T21:05:01.183Z,18.40
2018-08-31T21:07:06.194Z,18.40
2018-08-31T21:09:12.690Z,18.30
2018-08-31T21:11:17.292Z,18.30
2018-08-31T21:13:22.156Z,18.30
2018-08-31T21:15:27.684Z,18.20
2018-08-31T21:17:37.567Z,18.20
2018-08-31T21:19:41.764Z,18.20
2018-08-31T21:21:48.013Z,18.20
2018-08-31T21:23:53.681Z,18.20
2018-08-31T21:25:59.370Z,18.20
2018-08-31T21:28:04.822Z,18.10
2018-08-31T21:30:13.128Z,18.10
2018-08-31T21:32:19.558Z,18.10
2018-08-31T21:34:25.870Z,18.10
2018-08-31T21:36:31.330Z,18.10
2018-08-31T21:38:35.829Z,18.10
2018-08-31T21:40:41.048Z,18.00
2018-08-31T21:42:46.197Z,18.00
2018-08-31T21:44:50.951Z,18.00
2018-08-31T21:46:55.909Z,18.00
2018-08-31T21:49:00.190Z,17.90
2018-08-31T21:51:04.968Z,17.90
2018-08-31T21:53:09.311Z,17.80
2018-08-31T21:55:14.458Z,17.80
2018-08-31T21:57:21.296Z,17.70
2018-08-31T21:59:30.759Z,17.70
2018-08-31T22:01:38.911Z,17.70
2018-08-31T22:03:46.720Z,17.70
2018-08-31T22:06:01.657Z,17.70
2018-08-31T22:08:06.555Z,17.60
2018-08-31T22:10:13.025Z,17.50
2018-08-31T22:12:20.738Z,17.50
2018-08-31T22:14:25.324Z,17.60
2018-08-31T22:16:32.930Z,17.50
2018-08-31T22:18:37.726Z,17.50
2018-08-31T22:20:44.368Z,17.40
2018-08-31T22:22:49.451Z,17.30
2018-08-31T22:24:54.486Z,17.30
2018-08-31T22:27:00.398Z,17.20
2018-08-31T22:29:06.236Z,17.20
2018-08-31T22:31:12.551Z,17.20
2018-08-31T22:33:17.834Z,17.10
2018-08-31T22:35:23.921Z,17.10
2018-08-31T22:37:29.296Z,17.00
2018-08-31T22:39:38.998Z,17.00
2018-08-31T22:41:49.921Z,16.90
2018-08-31T22:43:58.325Z,16.90
2018-08-31T22:46:04.217Z,16.90
2018-08-31T22:48:11.436Z,16.80
2018-08-31T22:50:19.333Z,16.80
2018-08-31T22:52:23.217Z,16.80
2018-08-31T22:54:29.042Z,16.80
2018-08-31T22:56:33.333Z,16.80
2018-08-31T22:58:38.631Z,16.80
2018-08-31T23:00:44.728Z,16.70
2018-08-31T23:02:50.537Z,16.70
2018-08-31T23:04:55.557Z,16.70
2018-08-31T23:07:01.631Z,16.60
2018-08-31T23:09:07.594Z,16.60
2018-08-31T23:11:12.299Z,16.70
2018-08-31T23:13:17.589Z,16.70
2018-08-31T23:15:23.956Z,16.60
2018-08-31T23:17:30.520Z,16.60
2018-08-31T23:19:35.970Z,16.60
2018-08-31T23:21:39.885Z,16.60
2018-08-31T23:23:49.073Z,16.60
2018-08-31T23:25:54.623Z,16.50
2018-08-31T23:27:59.853Z,16.50
2018-08-31T23:30:04.787Z,16.50
2018-08-31T23:32:10.177Z,16.50
2018-08-31T23:34:16.100Z,16.40
2018-08-31T23:36:23.292Z,16.40
2018-08-31T23:38:28.386Z,16.40
2018-08-31T23:40:36.103Z,16.40
2018-08-31T23:42:40.370Z,16.40
2018-08-31T23:44:45.654Z,16.40
2018-08-31T23:46:50.078Z,16.40
2018-08-31T23:48:54.988Z,16.40
2018-08-31T23:51:00.201Z,16.40
2018-08-31T23:53:04.709Z,16.30
2018-08-31T23:55:10.637Z,16.30
2018-08-31T23:57:15.479Z,16.30
2018-08-31T23:59:22.794Z,16.40
